sensor_id;sensor_type;location;lat;lon;timestamp;P1;durP1;ratioP1;P2;durP2;ratioP2
22460;SDS011;11397;48.410;11.468;2023-07-31T00:01:17;4.10;;;4.00;;
22460;SDS011;11397;48.410;11.468;2023-07-31T00:06:19;4.20;;;4.10;;
22460;SDS011;11397;48.410;11.468;2023-07-31T00:11:21;4.13;;;4.03;;
22460;SDS011;11397;48.410;11.468;2023-07-31T00:16:30;4.20;;;4.10;;
22460;SDS011;11397;48.410;11.468;2023-07-31T00:21:31;4.22;;;4.13;;
22460;SDS011;11397;48.410;11.468;2023-07-31T00:26:57;4.32;;;4.22;;
22460;SDS011;11397;48.410;11.468;2023-07-31T00:32:06;4.45;;;4.35;;
22460;SDS011;11397;48.410;11.468;2023-07-31T00:37:08;3.85;;;3.75;;
22460;SDS011;11397;48.410;11.468;2023-07-31T00:42:10;4.70;;;4.60;;
22460;SDS011;11397;48.410;11.468;2023-07-31T00:47:13;4.22;;;4.13;;
22460;SDS011;11397;48.410;11.468;2023-07-31T00:52:15;4.20;;;4.10;;
22460;SDS011;11397;48.410;11.468;2023-07-31T01:02:47;4.10;;;4.00;;
22460;SDS011;11397;48.410;11.468;2023-07-31T01:07:49;4.22;;;4.13;;
22460;SDS011;11397;48.410;11.468;2023-07-31T01:18:27;3.88;;;3.78;;
22460;SDS011;11397;48.410;11.468;2023-07-31T01:23:44;4.22;;;4.13;;
22460;SDS011;11397;48.410;11.468;2023-07-31T01:29:25;4.25;;;4.15;;
22460;SDS011;11397;48.410;11.468;2023-07-31T01:39:55;4.30;;;4.20;;
22460;SDS011;11397;48.410;11.468;2023-07-31T01:44:58;4.50;;;4.40;;
22460;SDS011;11397;48.410;11.468;2023-07-31T01:50:05;4.30;;;4.20;;
22460;SDS011;11397;48.410;11.468;2023-07-31T01:55:07;4.20;;;4.10;;
22460;SDS011;11397;48.410;11.468;2023-07-31T02:00:12;4.15;;;4.05;;
22460;SDS011;11397;48.410;11.468;2023-07-31T02:05:13;4.05;;;3.95;;
22460;SDS011;11397;48.410;11.468;2023-07-31T02:10:15;4.55;;;4.45;;
22460;SDS011;11397;48.410;11.468;2023-07-31T02:15:18;4.10;;;4.00;;
22460;SDS011;11397;48.410;11.468;2023-07-31T02:20:26;4.70;;;4.60;;
22460;SDS011;11397;48.410;11.468;2023-07-31T02:25:28;4.47;;;4.38;;
22460;SDS011;11397;48.410;11.468;2023-07-31T02:30:35;4.70;;;4.60;;
22460;SDS011;11397;48.410;11.468;2023-07-31T02:35:37;4.70;;;4.60;;
22460;SDS011;11397;48.410;11.468;2023-07-31T02:40:44;4.70;;;4.60;;
22460;SDS011;11397;48.410;11.468;2023-07-31T02:45:51;4.43;;;4.32;;
22460;SDS011;11397;48.410;11.468;2023-07-31T02:50:59;5.80;;;5.35;;
22460;SDS011;11397;48.410;11.468;2023-07-31T02:56:01;4.30;;;4.20;;
22460;SDS011;11397;48.410;11.468;2023-07-31T03:01:05;4.60;;;4.50;;
22460;SDS011;11397;48.410;11.468;2023-07-31T03:06:06;4.53;;;4.43;;
22460;SDS011;11397;48.410;11.468;2023-07-31T03:11:08;4.20;;;4.10;;
22460;SDS011;11397;48.410;11.468;2023-07-31T03:16:13;4.20;;;4.10;;
22460;SDS011;11397;48.410;11.468;2023-07-31T03:21:44;3.90;;;3.80;;
22460;SDS011;11397;48.410;11.468;2023-07-31T03:26:46;3.75;;;3.65;;
22460;SDS011;11397;48.410;11.468;2023-07-31T03:31:49;4.00;;;3.90;;
22460;SDS011;11397;48.410;11.468;2023-07-31T03:36:54;3.70;;;3.60;;
22460;SDS011;11397;48.410;11.468;2023-07-31T03:41:56;4.07;;;3.97;;
22460;SDS011;11397;48.410;11.468;2023-07-31T03:46:59;3.97;;;3.88;;
22460;SDS011;11397;48.410;11.468;2023-07-31T03:52:01;3.60;;;3.50;;
22460;SDS011;11397;48.410;11.468;2023-07-31T03:57:51;3.45;;;3.35;;
22460;SDS011;11397;48.410;11.468;2023-07-31T04:02:55;4.00;;;3.90;;
22460;SDS011;11397;48.410;11.468;2023-07-31T04:07:57;3.60;;;3.50;;
22460;SDS011;11397;48.410;11.468;2023-07-31T04:13:22;4.05;;;3.95;;
22460;SDS011;11397;48.410;11.468;2023-07-31T04:18:29;3.65;;;3.55;;
22460;SDS011;11397;48.410;11.468;2023-07-31T04:23:31;4.00;;;3.90;;
22460;SDS011;11397;48.410;11.468;2023-07-31T04:29:22;3.65;;;3.55;;
22460;SDS011;11397;48.410;11.468;2023-07-31T04:34:28;4.18;;;4.07;;
22460;SDS011;11397;48.410;11.468;2023-07-31T04:39:30;3.88;;;3.78;;
22460;SDS011;11397;48.410;11.468;2023-07-31T04:44:34;3.95;;;3.85;;
22460;SDS011;11397;48.410;11.468;2023-07-31T04:49:38;4.00;;;3.90;;
22460;SDS011;11397;48.410;11.468;2023-07-31T04:54:40;3.88;;;3.78;;
22460;SDS011;11397;48.410;11.468;2023-07-31T04:59:44;3.88;;;3.78;;
22460;SDS011;11397;48.410;11.468;2023-07-31T05:04:47;3.83;;;3.72;;
22460;SDS011;11397;48.410;11.468;2023-07-31T05:09:49;3.75;;;3.65;;
22460;SDS011;11397;48.410;11.468;2023-07-31T05:14:50;3.65;;;3.55;;
22460;SDS011;11397;48.410;11.468;2023-07-31T05:19:58;3.90;;;3.80;;
22460;SDS011;11397;48.410;11.468;2023-07-31T05:24:59;4.10;;;4.00;;
22460;SDS011;11397;48.410;11.468;2023-07-31T05:30:04;3.78;;;3.67;;
22460;SDS011;11397;48.410;11.468;2023-07-31T05:35:07;3.90;;;3.80;;
22460;SDS011;11397;48.410;11.468;2023-07-31T05:40:09;4.13;;;4.03;;
22460;SDS011;11397;48.410;11.468;2023-07-31T05:45:11;3.88;;;3.78;;
22460;SDS011;11397;48.410;11.468;2023-07-31T05:50:18;3.65;;;3.55;;
22460;SDS011;11397;48.410;11.468;2023-07-31T05:55:19;3.65;;;3.55;;
22460;SDS011;11397;48.410;11.468;2023-07-31T06:00:23;3.72;;;3.63;;
22460;SDS011;11397;48.410;11.468;2023-07-31T06:05:26;4.00;;;3.90;;
22460;SDS011;11397;48.410;11.468;2023-07-31T06:10:30;3.85;;;3.75;;
22460;SDS011;11397;48.410;11.468;2023-07-31T06:15:32;3.67;;;3.58;;
22460;SDS011;11397;48.410;11.468;2023-07-31T06:20:35;3.50;;;3.40;;
22460;SDS011;11397;48.410;11.468;2023-07-31T06:25:37;4.20;;;4.10;;
22460;SDS011;11397;48.410;11.468;2023-07-31T06:31:03;3.92;;;3.83;;
22460;SDS011;11397;48.410;11.468;2023-07-31T06:36:06;3.90;;;3.80;;
22460;SDS011;11397;48.410;11.468;2023-07-31T06:41:08;4.00;;;3.90;;
22460;SDS011;11397;48.410;11.468;2023-07-31T06:46:10;3.60;;;3.50;;
22460;SDS011;11397;48.410;11.468;2023-07-31T06:51:13;3.83;;;3.72;;
22460;SDS011;11397;48.410;11.468;2023-07-31T06:56:15;4.10;;;4.00;;
22460;SDS011;11397;48.410;11.468;2023-07-31T07:01:17;4.15;;;4.05;;
22460;SDS011;11397;48.410;11.468;2023-07-31T07:06:26;3.63;;;3.53;;
22460;SDS011;11397;48.410;11.468;2023-07-31T07:11:28;3.67;;;3.58;;
22460;SDS011;11397;48.410;11.468;2023-07-31T07:16:29;4.00;;;3.90;;
22460;SDS011;11397;48.410;11.468;2023-07-31T07:21:35;3.78;;;3.67;;
22460;SDS011;11397;48.410;11.468;2023-07-31T07:26:37;3.50;;;3.40;;
22460;SDS011;11397;48.410;11.468;2023-07-31T07:32:27;3.58;;;3.47;;
22460;SDS011;11397;48.410;11.468;2023-07-31T07:37:30;4.53;;;4.32;;
22460;SDS011;11397;48.410;11.468;2023-07-31T07:42:32;3.78;;;3.67;;
22460;SDS011;11397;48.410;11.468;2023-07-31T07:47:34;4.22;;;4.13;;
22460;SDS011;11397;48.410;11.468;2023-07-31T07:52:37;4.47;;;4.38;;
22460;SDS011;11397;48.410;11.468;2023-07-31T07:57:39;4.40;;;4.30;;
22460;SDS011;11397;48.410;11.468;2023-07-31T08:02:41;3.97;;;3.88;;
22460;SDS011;11397;48.410;11.468;2023-07-31T08:07:44;4.28;;;4.18;;
22460;SDS011;11397;48.410;11.468;2023-07-31T08:12:46;4.40;;;4.30;;
22460;SDS011;11397;48.410;11.468;2023-07-31T08:17:48;3.97;;;3.88;;
22460;SDS011;11397;48.410;11.468;2023-07-31T08:22:51;4.07;;;3.97;;
22460;SDS011;11397;48.410;11.468;2023-07-31T08:27:53;3.97;;;3.88;;
22460;SDS011;11397;48.410;11.468;2023-07-31T08:32:55;4.05;;;3.95;;
22460;SDS011;11397;48.410;11.468;2023-07-31T08:38:00;4.00;;;3.90;;
22460;SDS011;11397;48.410;11.468;2023-07-31T08:43:02;4.10;;;4.00;;
22460;SDS011;11397;48.410;11.468;2023-07-31T08:48:04;3.85;;;3.75;;
22460;SDS011;11397;48.410;11.468;2023-07-31T08:58:34;4.28;;;4.18;;
22460;SDS011;11397;48.410;11.468;2023-07-31T09:03:36;4.20;;;4.10;;
22460;SDS011;11397;48.410;11.468;2023-07-31T09:08:39;4.05;;;3.95;;
22460;SDS011;11397;48.410;11.468;2023-07-31T09:13:44;4.03;;;3.92;;
22460;SDS011;11397;48.410;11.468;2023-07-31T09:18:56;4.00;;;3.90;;
22460;SDS011;11397;48.410;11.468;2023-07-31T09:23:59;4.13;;;4.03;;
22460;SDS011;11397;48.410;11.468;2023-07-31T09:29:26;4.28;;;4.18;;
22460;SDS011;11397;48.410;11.468;2023-07-31T09:34:29;4.13;;;4.03;;
22460;SDS011;11397;48.410;11.468;2023-07-31T09:39:31;4.35;;;4.25;;
22460;SDS011;11397;48.410;11.468;2023-07-31T09:44:38;4.25;;;4.15;;
22460;SDS011;11397;48.410;11.468;2023-07-31T09:49:45;4.07;;;3.97;;
22460;SDS011;11397;48.410;11.468;2023-07-31T09:54:47;4.03;;;3.92;;
22460;SDS011;11397;48.410;11.468;2023-07-31T09:59:50;4.03;;;3.92;;
22460;SDS011;11397;48.410;11.468;2023-07-31T10:04:54;4.20;;;4.10;;
22460;SDS011;11397;48.410;11.468;2023-07-31T10:09:58;3.75;;;3.65;;
22460;SDS011;11397;48.410;11.468;2023-07-31T10:15:02;4.25;;;4.15;;
22460;SDS011;11397;48.410;11.468;2023-07-31T10:20:05;4.15;;;4.05;;
22460;SDS011;11397;48.410;11.468;2023-07-31T10:25:08;4.10;;;4.00;;
22460;SDS011;11397;48.410;11.468;2023-07-31T10:30:12;3.65;;;3.55;;
22460;SDS011;11397;48.410;11.468;2023-07-31T10:35:16;4.00;;;3.90;;
22460;SDS011;11397;48.410;11.468;2023-07-31T10:40:19;4.40;;;4.30;;
22460;SDS011;11397;48.410;11.468;2023-07-31T10:45:25;4.10;;;4.00;;
22460;SDS011;11397;48.410;11.468;2023-07-31T10:50:27;4.07;;;3.97;;
22460;SDS011;11397;48.410;11.468;2023-07-31T10:55:30;4.20;;;4.10;;
22460;SDS011;11397;48.410;11.468;2023-07-31T11:00:36;4.28;;;4.18;;
22460;SDS011;11397;48.410;11.468;2023-07-31T11:05:51;4.03;;;3.92;;
22460;SDS011;11397;48.410;11.468;2023-07-31T11:11:04;3.97;;;3.88;;
22460;SDS011;11397;48.410;11.468;2023-07-31T11:16:15;4.07;;;3.97;;
22460;SDS011;11397;48.410;11.468;2023-07-31T11:21:18;4.10;;;4.00;;
22460;SDS011;11397;48.410;11.468;2023-07-31T11:26:21;4.10;;;4.00;;
22460;SDS011;11397;48.410;11.468;2023-07-31T11:31:26;3.90;;;3.80;;
22460;SDS011;11397;48.410;11.468;2023-07-31T11:36:27;4.00;;;3.90;;
22460;SDS011;11397;48.410;11.468;2023-07-31T11:41:29;4.25;;;4.05;;
22460;SDS011;11397;48.410;11.468;2023-07-31T11:46:32;3.75;;;3.65;;
22460;SDS011;11397;48.410;11.468;2023-07-31T11:51:34;3.88;;;3.78;;
22460;SDS011;11397;48.410;11.468;2023-07-31T11:56:36;3.70;;;3.60;;
22460;SDS011;11397;48.410;11.468;2023-07-31T12:01:39;3.63;;;3.53;;
22460;SDS011;11397;48.410;11.468;2023-07-31T12:06:42;4.15;;;4.05;;
22460;SDS011;11397;48.410;11.468;2023-07-31T12:11:45;3.50;;;3.40;;
22460;SDS011;11397;48.410;11.468;2023-07-31T12:16:49;3.80;;;3.70;;
22460;SDS011;11397;48.410;11.468;2023-07-31T12:21:54;3.67;;;3.58;;
22460;SDS011;11397;48.410;11.468;2023-07-31T12:26:56;3.90;;;3.80;;
22460;SDS011;11397;48.410;11.468;2023-07-31T12:31:59;3.60;;;3.50;;
22460;SDS011;11397;48.410;11.468;2023-07-31T12:37:01;3.50;;;3.40;;
22460;SDS011;11397;48.410;11.468;2023-07-31T12:42:03;3.70;;;3.60;;
22460;SDS011;11397;48.410;11.468;2023-07-31T12:47:07;4.00;;;3.90;;
22460;SDS011;11397;48.410;11.468;2023-07-31T12:52:08;3.60;;;3.50;;
22460;SDS011;11397;48.410;11.468;2023-07-31T12:57:15;3.47;;;3.38;;
22460;SDS011;11397;48.410;11.468;2023-07-31T13:02:20;3.80;;;3.70;;
22460;SDS011;11397;48.410;11.468;2023-07-31T13:07:23;3.60;;;3.50;;
22460;SDS011;11397;48.410;11.468;2023-07-31T13:12:25;3.88;;;3.78;;
22460;SDS011;11397;48.410;11.468;2023-07-31T13:17:29;3.85;;;3.75;;
22460;SDS011;11397;48.410;11.468;2023-07-31T13:22:31;3.60;;;3.50;;
22460;SDS011;11397;48.410;11.468;2023-07-31T13:27:32;3.70;;;3.60;;
22460;SDS011;11397;48.410;11.468;2023-07-31T13:32:36;3.42;;;3.33;;
22460;SDS011;11397;48.410;11.468;2023-07-31T13:37:39;3.53;;;3.42;;
22460;SDS011;11397;48.410;11.468;2023-07-31T13:42:41;3.80;;;3.70;;
22460;SDS011;11397;48.410;11.468;2023-07-31T13:47:45;3.60;;;3.50;;
22460;SDS011;11397;48.410;11.468;2023-07-31T13:52:47;3.65;;;3.55;;
22460;SDS011;11397;48.410;11.468;2023-07-31T13:57:48;3.67;;;3.58;;
22460;SDS011;11397;48.410;11.468;2023-07-31T14:02:52;3.83;;;3.72;;
22460;SDS011;11397;48.410;11.468;2023-07-31T14:07:54;3.45;;;3.35;;
22460;SDS011;11397;48.410;11.468;2023-07-31T14:12:55;3.60;;;3.50;;
22460;SDS011;11397;48.410;11.468;2023-07-31T14:17:59;3.58;;;3.47;;
22460;SDS011;11397;48.410;11.468;2023-07-31T14:23:01;3.60;;;3.50;;
22460;SDS011;11397;48.410;11.468;2023-07-31T14:28:33;3.60;;;3.50;;
22460;SDS011;11397;48.410;11.468;2023-07-31T14:34:26;3.65;;;3.55;;
22460;SDS011;11397;48.410;11.468;2023-07-31T14:39:27;3.40;;;3.30;;
22460;SDS011;11397;48.410;11.468;2023-07-31T14:44:29;3.38;;;3.28;;
22460;SDS011;11397;48.410;11.468;2023-07-31T14:49:34;3.33;;;3.22;;
22460;SDS011;11397;48.410;11.468;2023-07-31T14:54:36;3.53;;;3.42;;
22460;SDS011;11397;48.410;11.468;2023-07-31T14:59:38;3.38;;;3.28;;
22460;SDS011;11397;48.410;11.468;2023-07-31T15:04:41;3.35;;;3.25;;
22460;SDS011;11397;48.410;11.468;2023-07-31T15:09:48;3.65;;;3.55;;
22460;SDS011;11397;48.410;11.468;2023-07-31T15:14:50;3.55;;;3.45;;
22460;SDS011;11397;48.410;11.468;2023-07-31T15:25:22;3.60;;;3.50;;
22460;SDS011;11397;48.410;11.468;2023-07-31T15:30:24;3.60;;;3.50;;
22460;SDS011;11397;48.410;11.468;2023-07-31T15:35:56;3.47;;;3.38;;
22460;SDS011;11397;48.410;11.468;2023-07-31T15:40:59;3.60;;;3.50;;
22460;SDS011;11397;48.410;11.468;2023-07-31T15:46:01;3.78;;;3.67;;
22460;SDS011;11397;48.410;11.468;2023-07-31T15:51:04;3.78;;;3.67;;
22460;SDS011;11397;48.410;11.468;2023-07-31T15:56:07;3.28;;;3.17;;
22460;SDS011;11397;48.410;11.468;2023-07-31T16:02:22;3.72;;;3.63;;
22460;SDS011;11397;48.410;11.468;2023-07-31T16:12:54;3.25;;;3.15;;
22460;SDS011;11397;48.410;11.468;2023-07-31T16:17:56;3.40;;;3.30;;
22460;SDS011;11397;48.410;11.468;2023-07-31T16:22:58;3.60;;;3.50;;
22460;SDS011;11397;48.410;11.468;2023-07-31T16:28:01;3.65;;;3.55;;
